Wetterdaten: Woche 11.03.19 - 17.03.19 (KW11)
Datum Zeit Temp. A. Pool Temp. Temp. 5cm Feuchte A. Luftdruck Regen Wind Richtung Sonnenschein ET UV Solar Taupunkt Windchill Windben Empfang
11.03.2019 00:00 6,4 C 7,2 C 4,4 C 69 % 1013,6 hPa 0,0 l/m 29,3 km/h (5 Bft) W 0,00 h 0,000 mm 0,0 UV-I 0 W/m 1,1 C -4,2 C 48,7 km/h (6 Bft) 98,27 %
11.03.2019 01:00 6,5 C 7,2 C 5,0 C 63 % 1014,8 hPa 0,0 l/m 27,5 km/h (4 Bft) W 0,00 h 0,076 mm 0,0 UV-I 0 W/m -0,0 C -3,6 C 42,6 km/h (6 Bft) 97,09 %
11.03.2019 02:00 6,0 C 7,2 C 4,7 C 62 % 1015,7 hPa 0,0 l/m 22,0 km/h (4 Bft) W 0,00 h 0,102 mm 0,0 UV-I 0 W/m -0,7 C -2,5 C 34,6 km/h (5 Bft) 98,18 %
11.03.2019 03:00 5,8 C 7,2 C 5,0 C 60 % 1016,2 hPa 0,0 l/m 22,1 km/h (4 Bft) W 0,00 h 0,076 mm 0,0 UV-I 0 W/m -1,2 C -2,7 C 34,5 km/h (5 Bft) 95,97 %
11.03.2019 04:00 5,4 C 7,2 C 4,7 C 62 % 1016,3 hPa 0,0 l/m 21,1 km/h (4 Bft) W 0,00 h 0,076 mm 0,0 UV-I 0 W/m -1,3 C -2,9 C 32,2 km/h (5 Bft) 97,70 %
11.03.2019 05:00 5,1 C 7,2 C 4,1 C 62 % 1016,4 hPa 0,0 l/m 22,9 km/h (4 Bft) W 0,00 h 0,076 mm 0,0 UV-I 0 W/m -1,5 C -4,0 C 35,1 km/h (5 Bft) 97,60 %
11.03.2019 06:00 4,1 C 7,2 C 2,6 C 65 % 1016,3 hPa 0,0 l/m 15,7 km/h (3 Bft) W-SW 0,40 h 0,077 mm 0,0 UV-I 24 W/m -1,8 C -2,3 C 23,8 km/h (4 Bft) 98,63 %
11.03.2019 07:00 4,8 C 7,2 C 4,8 C 61 % 1015,8 hPa 0,0 l/m 16,8 km/h (3 Bft) W 0,47 h 0,050 mm 0,0 UV-I 89 W/m -2,0 C -1,9 C 25,6 km/h (4 Bft) 96,69 %
11.03.2019 08:00 5,7 C 7,2 C 6,9 C 61 % 1015,2 hPa 0,0 l/m 20,0 km/h (4 Bft) W-SW 0,47 h 0,102 mm 0,4 UV-I 189 W/m -1,2 C -2,2 C 30,7 km/h (5 Bft) 96,79 %
11.03.2019 09:00 7,3 C 7,2 C 10,2 C 55 % 1014,3 hPa 0,0 l/m 23,8 km/h (4 Bft) W-SW 0,73 h 0,152 mm 0,7 UV-I 332 W/m -1,2 C -1,4 C 36,3 km/h (5 Bft) 97,25 %
11.03.2019 10:00 6,2 C 7,2 C 7,4 C 56 % 1014,1 hPa 0,0 l/m 32,3 km/h (5 Bft) W 0,00 h 0,254 mm 0,5 UV-I 196 W/m -1,8 C -5,1 C 50,1 km/h (7 Bft) 98,77 %
11.03.2019 11:00 3,5 C 7,2 C 3,6 C 76 % 1015,6 hPa 0,0 l/m 27,2 km/h (4 Bft) W-SW 0,00 h 0,204 mm 0,6 UV-I 124 W/m -0,5 C -7,6 C 42,5 km/h (6 Bft) 96,96 %
11.03.2019 12:00 2,1 C 7,2 C 3,0 C 86 % 1016,6 hPa 0,6 l/m 24,9 km/h (4 Bft) W-SW 0,00 h 0,101 mm 0,6 UV-I 193 W/m 0,1 C -8,7 C 38,6 km/h (5 Bft) 98,31 %
11.03.2019 13:00 3,4 C 7,2 C 5,9 C 79 % 1016,8 hPa 0,0 l/m 26,6 km/h (4 Bft) W-SW 0,73 h 0,102 mm 0,9 UV-I 378 W/m 0,1 C -7,6 C 40,5 km/h (6 Bft) 95,19 %
11.03.2019 14:00 4,1 C 7,2 C 5,7 C 74 % 1016,8 hPa 0,0 l/m 25,1 km/h (4 Bft) W-SW 0,17 h 0,178 mm 0,5 UV-I 231 W/m -0,2 C -6,1 C 39,3 km/h (6 Bft) 98,17 %
11.03.2019 15:00 4,8 C 7,2 C 5,9 C 68 % 1016,4 hPa 0,0 l/m 23,4 km/h (4 Bft) W 0,60 h 0,152 mm 0,5 UV-I 268 W/m -0,5 C -4,3 C 36,2 km/h (5 Bft) 97,41 %
11.03.2019 16:00 4,7 C 7,2 C 5,0 C 64 % 1016,8 hPa 0,0 l/m 19,7 km/h (3 Bft) W 0,27 h 0,178 mm 0,0 UV-I 114 W/m -1,6 C -3,3 C 31,4 km/h (5 Bft) 99,22 %
11.03.2019 17:00 3,2 C 7,2 C 2,7 C 71 % 1017,7 hPa 0,0 l/m 21,7 km/h (4 Bft) W 0,13 h 0,101 mm 0,0 UV-I 29 W/m -1,5 C -6,1 C 32,3 km/h (5 Bft) 96,96 %
11.03.2019 18:00 1,9 C 7,2 C 1,1 C 83 % 1018,6 hPa 0,0 l/m 17,2 km/h (3 Bft) W 0,00 h 0,051 mm 0,0 UV-I 5 W/m -0,6 C -5,7 C 26,5 km/h (4 Bft) 96,87 %
11.03.2019 19:00 0,7 C 7,2 C 0,0 C 93 % 1019,6 hPa 0,0 l/m 13,9 km/h (3 Bft) W 0,00 h 0,026 mm 0,0 UV-I 0 W/m -0,4 C -5,4 C 21,1 km/h (4 Bft) 97,27 %
11.03.2019 20:00 0,8 C 7,2 C 0,0 C 93 % 1020,2 hPa 0,0 l/m 13,7 km/h (3 Bft) W-SW 0,00 h 0,000 mm 0,0 UV-I 0 W/m -0,2 C -5,2 C 20,1 km/h (4 Bft) 98,40 %
11.03.2019 21:00 1,0 C 7,2 C 0,3 C 93 % 1020,3 hPa 0,0 l/m 17,2 km/h (3 Bft) W-SW 0,00 h 0,000 mm 0,0 UV-I 0 W/m -0,0 C -6,9 C 25,7 km/h (4 Bft) 97,29 %
11.03.2019 22:00 1,4 C 7,2 C 0,6 C 90 % 1020,4 hPa 0,0 l/m 19,6 km/h (3 Bft) W-SW 0,00 h 0,000 mm 0,0 UV-I 0 W/m -0,0 C -7,4 C 29,9 km/h (5 Bft) 96,70 %
11.03.2019 23:00 1,8 C 7,2 C 0,6 C 86 % 1020,5 hPa 0,2 l/m 25,1 km/h (4 Bft) W 0,00 h 0,025 mm 0,0 UV-I 0 W/m -0,3 C -9,3 C 36,2 km/h (5 Bft) 97,78 %
12.03.2019 00:00 2,2 C 7,2 C 1,1 C 82 % 1020,8 hPa 0,4 l/m 23,1 km/h (4 Bft) W-SW 0,00 h 0,000 mm 0,0 UV-I 0 W/m -0,5 C -8,0 C 33,9 km/h (5 Bft) 97,52 %
12.03.2019 01:00 1,8 C 7,2 C 0,8 C 84 % 1021,0 hPa 0,4 l/m 20,6 km/h (4 Bft) W 0,00 h 0,025 mm 0,0 UV-I 0 W/m -0,5 C -7,5 C 30,9 km/h (5 Bft) 98,39 %
12.03.2019 02:00 1,3 C 7,2 C 0,6 C 90 % 1021,1 hPa 0,4 l/m 20,2 km/h (4 Bft) W-SW 0,00 h 0,026 mm 0,0 UV-I 0 W/m -0,2 C -7,9 C 29,9 km/h (5 Bft) 95,54 %
12.03.2019 03:00 1,9 C 7,2 C 0,9 C 88 % 1021,6 hPa 0,4 l/m 19,1 km/h (3 Bft) W 0,00 h 0,025 mm 0,0 UV-I 0 W/m 0,0 C -6,7 C 29,9 km/h (5 Bft) 98,20 %
12.03.2019 04:00 2,1 C 7,2 C 1,1 C 86 % 1022,6 hPa 0,4 l/m 18,8 km/h (3 Bft) W 0,00 h 0,026 mm 0,0 UV-I 0 W/m 0,1 C -6,3 C 30,0 km/h (5 Bft) 96,91 %
12.03.2019 05:00 2,2 C 7,2 C 1,1 C 87 % 1023,4 hPa 0,2 l/m 19,5 km/h (3 Bft) W 0,00 h 0,025 mm 0,0 UV-I 0 W/m 0,3 C -6,5 C 29,3 km/h (5 Bft) 98,48 %
12.03.2019 06:00 2,3 C 7,2 C 1,6 C 87 % 1024,2 hPa 0,2 l/m 16,5 km/h (3 Bft) W 0,00 h 0,025 mm 0,0 UV-I 10 W/m 0,3 C -5,0 C 24,8 km/h (4 Bft) 95,37 %
12.03.2019 07:00 2,4 C 7,2 C 2,0 C 86 % 1025,3 hPa 0,0 l/m 17,2 km/h (3 Bft) W 0,00 h 0,026 mm 0,0 UV-I 32 W/m 0,2 C -5,2 C 25,3 km/h (4 Bft) 98,01 %
12.03.2019 08:00 2,7 C 7,2 C 2,3 C 82 % 1026,0 hPa 0,0 l/m 17,1 km/h (3 Bft) W 0,00 h 0,025 mm 0,0 UV-I 59 W/m -0,0 C -4,7 C 26,5 km/h (4 Bft) 96,83 %
12.03.2019 09:00 2,9 C 7,2 C 3,1 C 82 % 1026,1 hPa 0,0 l/m 15,4 km/h (3 Bft) W-SW 0,00 h 0,051 mm 0,0 UV-I 104 W/m 0,1 C -3,5 C 23,6 km/h (4 Bft) 98,34 %
12.03.2019 10:00 3,2 C 7,2 C 4,8 C 83 % 1026,0 hPa 0,0 l/m 15,4 km/h (3 Bft) SW 0,13 h 0,051 mm 0,7 UV-I 193 W/m 0,5 C -3,2 C 23,7 km/h (4 Bft) 96,08 %
12.03.2019 11:00 5,1 C 7,2 C 11,6 C 74 % 1025,4 hPa 0,0 l/m 17,5 km/h (3 Bft) W 0,97 h 0,101 mm 1,4 UV-I 508 W/m 0,8 C -2,0 C 26,2 km/h (4 Bft) 96,45 %
12.03.2019 12:00 5,1 C 7,2 C 7,5 C 68 % 1024,6 hPa 0,0 l/m 15,1 km/h (3 Bft) W 0,00 h 0,229 mm 0,9 UV-I 180 W/m -0,3 C -0,7 C 22,8 km/h (4 Bft) 96,71 %
12.03.2019 13:00 5,9 C 7,2 C 9,8 C 63 % 1023,4 hPa 0,0 l/m 12,8 km/h (3 Bft) W-SW 0,30 h 0,127 mm 1,0 UV-I 318 W/m -0,6 C 1,5 C 19,5 km/h (3 Bft) 98,43 %
12.03.2019 14:00 6,3 C 7,2 C 8,5 C 59 % 1022,4 hPa 0,0 l/m 13,1 km/h (3 Bft) W-SW 0,10 h 0,178 mm 0,7 UV-I 215 W/m -1,1 C 1,7 C 20,6 km/h (4 Bft) 97,51 %
12.03.2019 15:00 7,1 C 7,2 C 8,7 C 54 % 1021,6 hPa 0,0 l/m 11,0 km/h (2 Bft) SW 0,80 h 0,152 mm 0,6 UV-I 338 W/m -1,6 C 3,9 C 17,6 km/h (3 Bft) 98,51 %
12.03.2019 16:00 6,9 C 7,2 C 5,4 C 51 % 1020,3 hPa 0,0 l/m 6,4 km/h (2 Bft) SW 1,00 h 0,203 mm 0,4 UV-I 202 W/m -2,5 C 6,2 C 10,6 km/h (2 Bft) 97,43 %
12.03.2019 17:00 6,1 C 7,2 C 2,6 C 54 % 1018,9 hPa 0,0 l/m 3,6 km/h (1 Bft) S-SO 0,90 h 0,127 mm 0,0 UV-I 61 W/m -2,5 C 6,0 C 5,9 km/h (2 Bft) 96,29 %
12.03.2019 18:00 3,9 C 7,2 C -1,6 C 65 % 1017,9 hPa 0,0 l/m 5,7 km/h (1 Bft) O-SO 0,00 h 0,051 mm 0,0 UV-I 6 W/m -2,2 C 3,5 C 8,8 km/h (2 Bft) 97,89 %
12.03.2019 19:00 3,8 C 7,2 C -0,4 C 60 % 1017,0 hPa 0,0 l/m 8,3 km/h (2 Bft) O-SO 0,00 h 0,026 mm 0,0 UV-I 0 W/m -3,3 C 2,0 C 12,9 km/h (3 Bft) 97,38 %
12.03.2019 20:00 3,0 C 7,2 C -0,5 C 63 % 1015,9 hPa 0,0 l/m 8,3 km/h (2 Bft) O-SO 0,00 h 0,025 mm 0,0 UV-I 0 W/m -3,3 C 1,3 C 12,8 km/h (3 Bft) 98,61 %
12.03.2019 21:00 2,5 C 7,2 C 0,6 C 66 % 1014,7 hPa 0,0 l/m 8,4 km/h (2 Bft) O 0,00 h 0,025 mm 0,0 UV-I 0 W/m -3,3 C 0,6 C 12,7 km/h (3 Bft) 95,73 %
12.03.2019 22:00 1,7 C 7,2 C 0,5 C 73 % 1013,2 hPa 0,0 l/m 6,3 km/h (2 Bft) O 0,00 h 0,026 mm 0,0 UV-I 0 W/m -2,7 C 0,6 C 9,2 km/h (2 Bft) 98,11 %
12.03.2019 23:00 1,0 C 7,2 C -0,4 C 79 % 1011,9 hPa 0,0 l/m 6,0 km/h (2 Bft) O 0,00 h 0,025 mm 0,0 UV-I 0 W/m -2,3 C 0,6 C 9,0 km/h (2 Bft) 97,04 %
13.03.2019 00:00 0,4 C 7,2 C -2,2 C 83 % 1010,5 hPa 0,0 l/m 3,5 km/h (1 Bft) O 0,00 h 0,000 mm 0,0 UV-I 0 W/m -2,1 C 0,4 C 5,0 km/h (1 Bft) 98,80 %
13.03.2019 01:00 0,0 C 7,2 C -1,2 C 86 % 1010,0 hPa 0,0 l/m 2,2 km/h (1 Bft) O 0,00 h 0,000 mm 0,0 UV-I 0 W/m -2,0 C 0,0 C 3,5 km/h (1 Bft) 94,97 %
13.03.2019 02:00 0,2 C 7,2 C -0,4 C 86 % 1008,6 hPa 0,0 l/m 2,0 km/h (1 Bft) S-SW 0,00 h 0,000 mm 0,0 UV-I 0 W/m -1,9 C 0,1 C 3,8 km/h (1 Bft) 98,00 %
13.03.2019 03:00 0,2 C 7,2 C -0,4 C 87 % 1008,0 hPa 0,0 l/m 2,8 km/h (1 Bft) W-NW 0,00 h 0,000 mm 0,0 UV-I 0 W/m -1,7 C 0,2 C 5,0 km/h (1 Bft) 97,90 %
13.03.2019 04:00 0,7 C 7,2 C 0,1 C 85 % 1009,5 hPa 0,0 l/m 4,5 km/h (1 Bft) SW 0,00 h 0,000 mm 0,0 UV-I 0 W/m -1,5 C 0,4 C 7,7 km/h (2 Bft) 98,40 %
13.03.2019 05:00 1,5 C 7,2 C 1,2 C 81 % 1009,9 hPa 0,0 l/m 8,8 km/h (2 Bft) S 0,00 h 0,000 mm 0,0 UV-I 0 W/m -1,4 C -0,9 C 13,1 km/h (3 Bft) 94,48 %
13.03.2019 06:00 5,3 C 7,2 C 4,8 C 72 % 1011,1 hPa 0,0 l/m 21,3 km/h (4 Bft) W 0,00 h 0,025 mm 0,0 UV-I 7 W/m 0,7 C -2,3 C 34,1 km/h (5 Bft) 96,59 %
13.03.2019 07:00 6,7 C 7,2 C 6,3 C 72 % 1012,4 hPa 0,0 l/m 24,1 km/h (4 Bft) W-SW 0,00 h 0,051 mm 0,0 UV-I 33 W/m 2,0 C -2,3 C 35,6 km/h (5 Bft) 97,58 %
13.03.2019 08:00 6,2 C 7,2 C 6,8 C 77 % 1013,6 hPa 0,0 l/m 20,4 km/h (4 Bft) W-SW 0,07 h 0,076 mm 0,0 UV-I 104 W/m 2,4 C -1,6 C 30,7 km/h (5 Bft) 98,84 %
13.03.2019 09:00 5,9 C 7,2 C 6,9 C 81 % 1014,1 hPa 0,0 l/m 15,3 km/h (3 Bft) W-SW 0,07 h 0,077 mm 0,5 UV-I 121 W/m 3,0 C 0,2 C 22,8 km/h (4 Bft) 97,83 %
13.03.2019 10:00 5,8 C 7,2 C 7,0 C 81 % 1013,9 hPa 0,0 l/m 16,7 km/h (3 Bft) W-SW 0,00 h 0,076 mm 0,5 UV-I 135 W/m 2,8 C -0,7 C 25,1 km/h (4 Bft) 96,22 %
13.03.2019 11:00 6,4 C 7,2 C 10,8 C 79 % 1013,5 hPa 0,0 l/m 16,8 km/h (3 Bft) SW 0,50 h 0,076 mm 1,2 UV-I 331 W/m 3,0 C 0,0 C 25,1 km/h (4 Bft) 96,76 %
13.03.2019 12:00 7,6 C 7,2 C 10,7 C 68 % 1012,8 hPa 0,0 l/m 20,4 km/h (4 Bft) SW 0,23 h 0,178 mm 1,0 UV-I 278 W/m 2,2 C 0,2 C 31,7 km/h (5 Bft) 99,05 %
13.03.2019 13:00 8,1 C 7,2 C 10,9 C 63 % 1012,1 hPa 0,0 l/m 19,0 km/h (3 Bft) SW 0,03 h 0,178 mm 0,9 UV-I 265 W/m 1,4 C 1,3 C 29,5 km/h (5 Bft) 97,56 %
13.03.2019 14:00 9,2 C 7,2 C 12,7 C 55 % 1011,2 hPa 0,0 l/m 17,4 km/h (3 Bft) W-SW 0,52 h 0,177 mm 0,8 UV-I 357 W/m 0,5 C 3,4 C 26,3 km/h (4 Bft) 98,34 %
13.03.2019 15:00 7,9 C 7,2 C 8,5 C 60 % 1011,2 hPa 0,0 l/m 13,6 km/h (3 Bft) W 0,10 h 0,229 mm 0,1 UV-I 126 W/m 0,5 C 3,6 C 22,2 km/h (4 Bft) 94,98 %
13.03.2019 16:00 6,9 C 7,2 C 8,2 C 68 % 1011,1 hPa 0,0 l/m 5,2 km/h (1 Bft) W-NW 0,43 h 0,102 mm 0,0 UV-I 141 W/m 1,5 C 6,6 C 8,6 km/h (2 Bft) 97,34 %
13.03.2019 17:00 6,8 C 7,2 C 6,0 C 67 % 1011,2 hPa 0,0 l/m 8,1 km/h (2 Bft) W-NW 0,20 h 0,076 mm 0,0 UV-I 32 W/m 1,1 C 4,5 C 13,2 km/h (3 Bft) 97,51 %
13.03.2019 18:00 5,3 C 7,2 C 3,6 C 68 % 1011,7 hPa 0,0 l/m 12,6 km/h (3 Bft) W 0,00 h 0,051 mm 0,0 UV-I 7 W/m -0,0 C 0,9 C 18,8 km/h (3 Bft) 98,78 %
13.03.2019 19:00 4,5 C 7,2 C 2,4 C 70 % 1011,7 hPa 0,0 l/m 11,7 km/h (2 Bft) W-SW 0,00 h 0,050 mm 0,0 UV-I 0 W/m -0,6 C 0,5 C 17,8 km/h (3 Bft) 96,25 %
13.03.2019 20:00 4,7 C 7,2 C 3,2 C 66 % 1011,9 hPa 0,0 l/m 14,7 km/h (3 Bft) SW 0,00 h 0,026 mm 0,0 UV-I 0 W/m -1,1 C -1,1 C 21,5 km/h (4 Bft) 97,43 %
13.03.2019 21:00 4,6 C 7,2 C 3,7 C 66 % 1011,8 hPa 0,0 l/m 15,3 km/h (3 Bft) W-SW 0,00 h 0,051 mm 0,0 UV-I 0 W/m -1,3 C -1,4 C 23,0 km/h (4 Bft) 97,66 %
13.03.2019 22:00 5,3 C 7,2 C 4,5 C 63 % 1011,6 hPa 0,0 l/m 17,9 km/h (3 Bft) W-SW 0,00 h 0,050 mm 0,0 UV-I 0 W/m -1,1 C -1,9 C 26,1 km/h (4 Bft) 98,05 %
13.03.2019 23:00 5,4 C 7,2 C 4,5 C 66 % 1011,5 hPa 0,0 l/m 20,7 km/h (4 Bft) W 0,00 h 0,051 mm 0,0 UV-I 0 W/m -0,5 C -2,8 C 32,7 km/h (5 Bft) 97,38 %
14.03.2019 00:00 4,4 C 7,2 C 3,5 C 76 % 1011,1 hPa 0,0 l/m 18,4 km/h (3 Bft) W-SW 0,00 h 0,000 mm 0,0 UV-I 0 W/m 0,5 C -3,0 C 27,9 km/h (4 Bft) 96,35 %
14.03.2019 01:00 3,2 C 7,2 C 2,2 C 87 % 1011,3 hPa 0,4 l/m 22,4 km/h (4 Bft) SW 0,00 h 0,051 mm 0,0 UV-I 0 W/m 1,2 C -6,5 C 33,4 km/h (5 Bft) 98,09 %
14.03.2019 02:00 3,0 C 7,2 C 2,0 C 88 % 1010,7 hPa 0,0 l/m 15,7 km/h (3 Bft) W-SW 0,00 h 0,025 mm 0,0 UV-I 0 W/m 1,1 C -3,7 C 22,9 km/h (4 Bft) 97,69 %
14.03.2019 03:00 3,7 C 7,2 C 2,8 C 85 % 1010,8 hPa 0,0 l/m 20,0 km/h (4 Bft) W 0,00 h 0,026 mm 0,0 UV-I 0 W/m 1,4 C -4,7 C 30,6 km/h (5 Bft) 98,34 %
14.03.2019 04:00 3,5 C 7,2 C 2,8 C 87 % 1011,4 hPa 0,0 l/m 20,9 km/h (4 Bft) W-SW 0,00 h 0,025 mm 0,0 UV-I 0 W/m 1,6 C -5,4 C 32,0 km/h (5 Bft) 95,83 %
14.03.2019 05:00 3,9 C 7,2 C 3,2 C 86 % 1012,0 hPa 0,4 l/m 15,5 km/h (3 Bft) W 0,00 h 0,025 mm 0,0 UV-I 0 W/m 1,9 C -2,4 C 23,9 km/h (4 Bft) 98,39 %
14.03.2019 06:00 3,2 C 7,2 C 2,8 C 92 % 1012,2 hPa 1,6 l/m 12,1 km/h (2 Bft) W 0,00 h 0,026 mm 0,0 UV-I 7 W/m 2,0 C -1,3 C 18,0 km/h (3 Bft) 97,11 %
14.03.2019 07:00 3,9 C 7,2 C 3,6 C 90 % 1012,4 hPa 0,4 l/m 16,2 km/h (3 Bft) W-SW 0,17 h 0,000 mm 0,0 UV-I 57 W/m 2,3 C -2,8 C 24,9 km/h (4 Bft) 98,11 %
14.03.2019 08:00 4,2 C 7,2 C 4,1 C 87 % 1012,6 hPa 0,0 l/m 17,4 km/h (3 Bft) W-SW 0,00 h 0,025 mm 0,0 UV-I 83 W/m 2,3 C -2,9 C 27,1 km/h (4 Bft) 96,04 %
14.03.2019 09:00 5,1 C 7,2 C 6,1 C 83 % 1012,7 hPa 0,0 l/m 20,8 km/h (4 Bft) W-SW 0,10 h 0,051 mm 0,6 UV-I 211 W/m 2,4 C -3,2 C 31,7 km/h (5 Bft) 97,32 %
14.03.2019 10:00 6,7 C 7,2 C 8,9 C 76 % 1012,2 hPa 0,0 l/m 22,9 km/h (4 Bft) W 0,30 h 0,127 mm 0,9 UV-I 323 W/m 2,7 C -2,0 C 35,9 km/h (5 Bft) 96,42 %
14.03.2019 11:00 7,6 C 7,2 C 11,9 C 72 % 1011,7 hPa 0,2 l/m 28,1 km/h (4 Bft) W-SW 0,80 h 0,178 mm 1,4 UV-I 545 W/m 2,8 C -2,2 C 43,3 km/h (6 Bft) 98,64 %
14.03.2019 12:00 8,5 C 7,2 C 14,5 C 65 % 1010,3 hPa 0,0 l/m 26,3 km/h (4 Bft) W 0,87 h 0,305 mm 1,3 UV-I 549 W/m 2,4 C -0,5 C 43,1 km/h (6 Bft) 97,63 %
14.03.2019 13:00 8,4 C 7,2 C 10,3 C 58 % 1008,7 hPa 0,0 l/m 27,0 km/h (4 Bft) W 0,03 h 0,304 mm 0,6 UV-I 221 W/m 0,6 C -0,7 C 42,2 km/h (6 Bft) 98,87 %
14.03.2019 14:00 8,3 C 7,2 C 10,1 C 57 % 1007,8 hPa 0,0 l/m 25,4 km/h (4 Bft) W 0,33 h 0,204 mm 0,6 UV-I 239 W/m 0,2 C -0,5 C 39,1 km/h (6 Bft) 95,71 %
14.03.2019 15:00 7,0 C 7,2 C 7,3 C 66 % 1006,9 hPa 0,0 l/m 23,3 km/h (4 Bft) W-SW 0,00 h 0,203 mm 0,0 UV-I 82 W/m 1,0 C -1,5 C 35,2 km/h (5 Bft) 97,41 %
14.03.2019 16:00 6,2 C 7,2 C 6,0 C 74 % 1005,7 hPa 0,0 l/m 19,3 km/h (3 Bft) SW 0,00 h 0,101 mm 0,0 UV-I 54 W/m 1,8 C -1,3 C 29,5 km/h (5 Bft) 97,52 %
14.03.2019 17:00 4,8 C 7,2 C 3,9 C 85 % 1004,8 hPa 1,0 l/m 16,3 km/h (3 Bft) SW 0,00 h 0,077 mm 0,0 UV-I 12 W/m 2,4 C -1,5 C 25,9 km/h (4 Bft) 98,73 %
14.03.2019 18:00 4,3 C 7,2 C 3,9 C 89 % 1003,9 hPa 0,4 l/m 8,6 km/h (2 Bft) SW 0,00 h 0,025 mm 0,0 UV-I 4 W/m 2,7 C 2,5 C 14,3 km/h (3 Bft) 95,46 %
14.03.2019 19:00 4,4 C 7,2 C 3,9 C 90 % 1003,3 hPa 0,6 l/m 5,9 km/h (2 Bft) W-SW 0,00 h 0,000 mm 0,0 UV-I 0 W/m 2,9 C 4,0 C 10,1 km/h (2 Bft) 97,29 %
14.03.2019 20:00 4,4 C 7,2 C 3,9 C 91 % 1003,0 hPa 1,6 l/m 14,1 km/h (3 Bft) W-SW 0,00 h 0,000 mm 0,0 UV-I 0 W/m 3,0 C -1,0 C 21,1 km/h (4 Bft) 96,60 %
14.03.2019 21:00 4,3 C 7,2 C 3,9 C 91 % 1003,0 hPa 0,8 l/m 19,3 km/h (3 Bft) W-SW 0,00 h 0,025 mm 0,0 UV-I 0 W/m 3,0 C -3,5 C 30,4 km/h (5 Bft) 98,74 %
14.03.2019 22:00 4,7 C 7,2 C 4,0 C 91 % 1003,1 hPa 0,4 l/m 23,0 km/h (4 Bft) W-SW 0,00 h 0,026 mm 0,0 UV-I 0 W/m 3,3 C -4,7 C 35,3 km/h (5 Bft) 96,32 %
14.03.2019 23:00 5,3 C 7,2 C 4,4 C 89 % 1003,9 hPa 0,2 l/m 18,1 km/h (3 Bft) W-SW 0,00 h 0,025 mm 0,0 UV-I 0 W/m 3,6 C -1,9 C 26,8 km/h (4 Bft) 96,61 %
15.03.2019 00:00 5,2 C 7,2 C 4,4 C 91 % 1004,7 hPa 1,4 l/m 19,1 km/h (3 Bft) W 0,00 h 0,000 mm 0,0 UV-I 0 W/m 3,8 C -2,4 C 29,6 km/h (5 Bft) 97,26 %
15.03.2019 01:00 5,3 C 7,2 C 4,4 C 90 % 1005,5 hPa 0,0 l/m 20,5 km/h (4 Bft) W-SW 0,00 h 0,025 mm 0,0 UV-I 0 W/m 3,8 C -2,9 C 31,1 km/h (5 Bft) 98,71 %
15.03.2019 02:00 5,8 C 7,2 C 4,6 C 85 % 1006,1 hPa 0,0 l/m 22,6 km/h (4 Bft) W 0,00 h 0,026 mm 0,0 UV-I 0 W/m 3,5 C -3,0 C 34,6 km/h (5 Bft) 97,17 %
15.03.2019 03:00 5,6 C 7,2 C 4,4 C 84 % 1006,4 hPa 0,0 l/m 22,3 km/h (4 Bft) W 0,00 h 0,025 mm 0,0 UV-I 0 W/m 3,2 C -3,2 C 33,9 km/h (5 Bft) 96,08 %
15.03.2019 04:00 5,4 C 7,2 C 4,0 C 82 % 1007,3 hPa 0,0 l/m 22,4 km/h (4 Bft) W 0,00 h 0,026 mm 0,0 UV-I 0 W/m 2,6 C -3,4 C 34,5 km/h (5 Bft) 97,25 %
15.03.2019 05:00 5,4 C 7,2 C 4,3 C 82 % 1008,1 hPa 0,0 l/m 19,2 km/h (3 Bft) W 0,00 h 0,025 mm 0,0 UV-I 0 W/m 2,5 C -2,3 C 28,4 km/h (4 Bft) 97,62 %
15.03.2019 06:00 5,0 C 7,2 C 4,2 C 80 % 1009,1 hPa 0,0 l/m 19,6 km/h (3 Bft) W 0,10 h 0,025 mm 0,0 UV-I 16 W/m 1,8 C -2,9 C 30,6 km/h (5 Bft) 97,87 %
15.03.2019 07:00 4,9 C 7,2 C 5,0 C 82 % 1009,8 hPa 0,0 l/m 16,4 km/h (3 Bft) W 0,50 h 0,051 mm 0,0 UV-I 106 W/m 2,0 C -1,7 C 23,9 km/h (4 Bft) 95,78 %
15.03.2019 08:00 5,1 C 7,2 C 6,1 C 84 % 1009,7 hPa 0,0 l/m 18,0 km/h (3 Bft) SW 0,00 h 0,076 mm 0,0 UV-I 126 W/m 2,7 C -2,1 C 26,7 km/h (4 Bft) 96,55 %
15.03.2019 09:00 6,5 C 7,2 C 8,3 C 81 % 1009,8 hPa 0,0 l/m 21,9 km/h (4 Bft) W-SW 0,00 h 0,077 mm 0,7 UV-I 204 W/m 3,4 C -1,8 C 32,9 km/h (5 Bft) 97,68 %
15.03.2019 10:00 6,9 C 7,2 C 8,1 C 77 % 1009,8 hPa 0,2 l/m 24,7 km/h (4 Bft) W-SW 0,00 h 0,127 mm 0,6 UV-I 159 W/m 3,2 C -2,3 C 38,6 km/h (5 Bft) 98,64 %
15.03.2019 11:00 6,6 C 7,2 C 7,7 C 83 % 1009,7 hPa 0,0 l/m 24,6 km/h (4 Bft) W-SW 0,00 h 0,127 mm 0,8 UV-I 220 W/m 3,9 C -2,6 C 37,7 km/h (5 Bft) 96,66 %
15.03.2019 12:00 6,4 C 7,2 C 6,8 C 87 % 1009,5 hPa 0,4 l/m 24,8 km/h (4 Bft) W-SW 0,00 h 0,127 mm 0,7 UV-I 176 W/m 4,3 C -3,0 C 38,0 km/h (5 Bft) 95,94 %
15.03.2019 13:00 5,7 C 7,2 C 6,2 C 90 % 1009,3 hPa 1,0 l/m 21,0 km/h (4 Bft) SW 0,00 h 0,101 mm 0,6 UV-I 145 W/m 4,2 C -2,5 C 32,4 km/h (5 Bft) 97,80 %
15.03.2019 14:00 5,6 C 7,2 C 5,9 C 91 % 1008,8 hPa 1,6 l/m 18,9 km/h (3 Bft) W-SW 0,00 h 0,076 mm 0,5 UV-I 121 W/m 4,2 C -1,8 C 28,4 km/h (4 Bft) 97,82 %
15.03.2019 15:00 6,2 C 7,2 C 6,3 C 91 % 1008,0 hPa 1,6 l/m 20,0 km/h (4 Bft) W-SW 0,00 h 0,077 mm 0,0 UV-I 88 W/m 4,9 C -1,5 C 30,7 km/h (5 Bft) 96,15 %
15.03.2019 16:00 7,5 C 7,2 C 7,1 C 92 % 1007,5 hPa 2,2 l/m 24,1 km/h (4 Bft) W 0,00 h 0,050 mm 0,0 UV-I 49 W/m 6,2 C -1,3 C 36,9 km/h (5 Bft) 95,92 %
15.03.2019 17:00 8,3 C 7,2 C 7,5 C 90 % 1007,2 hPa 0,8 l/m 28,4 km/h (4 Bft) W-SW 0,00 h 0,051 mm 0,0 UV-I 18 W/m 6,8 C -1,3 C 43,1 km/h (6 Bft) 97,04 %
15.03.2019 18:00 8,6 C 7,2 C 7,8 C 91 % 1007,4 hPa 1,8 l/m 26,3 km/h (4 Bft) W-SW 0,00 h 0,026 mm 0,0 UV-I 4 W/m 7,2 C -0,3 C 39,7 km/h (6 Bft) 98,55 %
15.03.2019 19:00 8,9 C 7,2 C 8,1 C 92 % 1007,6 hPa 1,4 l/m 23,7 km/h (4 Bft) SW 0,00 h 0,025 mm 0,0 UV-I 0 W/m 7,6 C 0,7 C 35,7 km/h (5 Bft) 96,52 %
15.03.2019 20:00 9,3 C 7,2 C 8,3 C 92 % 1007,7 hPa 0,2 l/m 23,6 km/h (4 Bft) W-SW 0,00 h 0,025 mm 0,0 UV-I 0 W/m 8,0 C 1,3 C 36,3 km/h (5 Bft) 96,94 %
15.03.2019 21:00 9,8 C 7,2 C 8,7 C 88 % 1007,8 hPa 0,2 l/m 22,2 km/h (4 Bft) SW 0,00 h 0,026 mm 0,0 UV-I 0 W/m 8,0 C 2,4 C 35,1 km/h (5 Bft) 96,33 %
15.03.2019 22:00 10,3 C 7,2 C 8,9 C 85 % 1007,8 hPa 0,0 l/m 24,4 km/h (4 Bft) W-SW 0,00 h 0,025 mm 0,0 UV-I 0 W/m 7,8 C 2,4 C 38,4 km/h (5 Bft) 98,53 %
15.03.2019 23:00 10,9 C 7,2 C 9,3 C 80 % 1007,6 hPa 0,0 l/m 28,7 km/h (4 Bft) SW 0,00 h 0,051 mm 0,0 UV-I 0 W/m 7,6 C 2,2 C 44,6 km/h (6 Bft) 96,79 %
16.03.2019 00:00 11,5 C 7,2 C 10,0 C 75 % 1007,5 hPa 0,0 l/m 32,4 km/h (5 Bft) W 0,00 h 0,000 mm 0,0 UV-I 0 W/m 7,3 C 2,4 C 51,8 km/h (7 Bft) 97,12 %
16.03.2019 01:00 11,7 C 7,2 C 11,0 C 73 % 1007,7 hPa 0,0 l/m 35,0 km/h (5 Bft) W 0,00 h 0,102 mm 0,0 UV-I 0 W/m 7,0 C 2,2 C 56,0 km/h (7 Bft) 96,11 %
16.03.2019 02:00 11,7 C 7,2 C 11,1 C 72 % 1007,9 hPa 0,0 l/m 31,6 km/h (5 Bft) W 0,00 h 0,101 mm 0,0 UV-I 0 W/m 6,8 C 2,8 C 51,6 km/h (7 Bft) 98,20 %
16.03.2019 03:00 11,7 C 7,2 C 11,1 C 71 % 1008,2 hPa 0,0 l/m 32,3 km/h (5 Bft) W 0,00 h 0,102 mm 0,0 UV-I 0 W/m 6,8 C 2,7 C 51,0 km/h (7 Bft) 96,55 %
16.03.2019 04:00 11,6 C 7,2 C 11,1 C 71 % 1008,7 hPa 0,0 l/m 31,4 km/h (5 Bft) W-SW 0,00 h 0,101 mm 0,0 UV-I 0 W/m 6,6 C 2,7 C 50,5 km/h (7 Bft) 99,14 %
16.03.2019 05:00 11,3 C 7,2 C 10,5 C 73 % 1009,3 hPa 0,0 l/m 30,4 km/h (5 Bft) W 0,00 h 0,102 mm 0,0 UV-I 0 W/m 6,6 C 2,5 C 48,8 km/h (6 Bft) 94,78 %
16.03.2019 06:00 11,3 C 7,2 C 10,6 C 72 % 1009,8 hPa 0,0 l/m 31,5 km/h (5 Bft) W 0,00 h 0,102 mm 0,0 UV-I 11 W/m 6,4 C 2,2 C 49,7 km/h (6 Bft) 97,63 %
16.03.2019 07:00 11,3 C 7,2 C 11,0 C 71 % 1010,5 hPa 0,0 l/m 31,9 km/h (5 Bft) W 0,00 h 0,101 mm 0,0 UV-I 29 W/m 6,2 C 2,2 C 50,4 km/h (7 Bft) 97,18 %
16.03.2019 08:00 11,8 C 7,2 C 11,8 C 68 % 1011,3 hPa 0,0 l/m 29,8 km/h (5 Bft) W-SW 0,00 h 0,102 mm 0,0 UV-I 57 W/m 6,0 C 3,2 C 47,8 km/h (6 Bft) 98,59 %
16.03.2019 09:00 12,1 C 7,2 C 12,5 C 67 % 1011,9 hPa 0,0 l/m 30,7 km/h (5 Bft) W 0,00 h 0,127 mm 0,5 UV-I 119 W/m 6,2 C 3,5 C 49,8 km/h (6 Bft) 95,13 %
16.03.2019 10:00 12,0 C 7,2 C 12,3 C 67 % 1012,3 hPa 0,0 l/m 23,8 km/h (4 Bft) W-SW 0,00 h 0,178 mm 0,3 UV-I 91 W/m 6,0 C 4,9 C 37,6 km/h (5 Bft) 96,76 %
16.03.2019 11:00 12,4 C 7,2 C 13,6 C 66 % 1012,4 hPa 0,0 l/m 23,3 km/h (4 Bft) W 0,00 h 0,127 mm 0,7 UV-I 175 W/m 6,3 C 5,6 C 37,8 km/h (5 Bft) 97,15 %
16.03.2019 12:00 13,1 C 7,2 C 14,6 C 64 % 1012,3 hPa 0,0 l/m 22,0 km/h (4 Bft) W 0,00 h 0,177 mm 0,9 UV-I 211 W/m 6,4 C 6,8 C 35,6 km/h (5 Bft) 98,38 %
16.03.2019 13:00 13,1 C 7,2 C 14,2 C 63 % 1011,8 hPa 0,0 l/m 20,0 km/h (4 Bft) W 0,00 h 0,204 mm 0,7 UV-I 175 W/m 6,2 C 7,4 C 31,3 km/h (5 Bft) 96,45 %
16.03.2019 14:00 13,8 C 7,2 C 16,3 C 61 % 1010,9 hPa 0,0 l/m 20,5 km/h (4 Bft) W 0,37 h 0,177 mm 1,1 UV-I 327 W/m 6,4 C 8,2 C 32,7 km/h (5 Bft) 95,78 %
16.03.2019 15:00 14,2 C 7,2 C 16,1 C 60 % 1010,5 hPa 0,0 l/m 15,5 km/h (3 Bft) W 0,33 h 0,254 mm 0,7 UV-I 237 W/m 6,6 C 10,2 C 25,9 km/h (4 Bft) 96,62 %
16.03.2019 16:00 13,5 C 7,2 C 14,1 C 60 % 1010,2 hPa 0,0 l/m 16,3 km/h (3 Bft) W 0,00 h 0,204 mm 0,0 UV-I 114 W/m 6,0 C 9,1 C 27,3 km/h (4 Bft) 97,85 %
16.03.2019 17:00 13,0 C 7,2 C 12,3 C 63 % 1010,1 hPa 0,0 l/m 11,9 km/h (2 Bft) W 0,03 h 0,127 mm 0,0 UV-I 26 W/m 6,1 C 10,1 C 18,4 km/h (3 Bft) 97,21 %
16.03.2019 18:00 12,2 C 7,2 C 10,4 C 66 % 1010,1 hPa 0,0 l/m 11,2 km/h (2 Bft) W 0,00 h 0,076 mm 0,0 UV-I 8 W/m 6,0 C 9,5 C 16,8 km/h (3 Bft) 98,10 %
16.03.2019 19:00 9,9 C 7,2 C 6,4 C 75 % 1010,1 hPa 0,0 l/m 5,1 km/h (1 Bft) S 0,00 h 0,051 mm 0,0 UV-I 0 W/m 5,7 C 9,9 C 7,3 km/h (2 Bft) 95,08 %
16.03.2019 20:00 8,1 C 7,2 C 4,3 C 82 % 1009,8 hPa 0,0 l/m 6,8 km/h (2 Bft) S-SW 0,00 h 0,025 mm 0,0 UV-I 0 W/m 5,1 C 7,7 C 8,9 km/h (2 Bft) 98,16 %
16.03.2019 21:00 8,1 C 7,2 C 4,3 C 82 % 1009,3 hPa 0,0 l/m 5,6 km/h (1 Bft) S-SW 0,00 h 0,025 mm 0,0 UV-I 0 W/m 5,1 C 8,0 C 7,6 km/h (2 Bft) 98,17 %
16.03.2019 22:00 7,1 C 7,2 C 4,0 C 84 % 1009,2 hPa 0,0 l/m 5,2 km/h (1 Bft) S-SW 0,00 h 0,026 mm 0,0 UV-I 0 W/m 4,6 C 7,0 C 7,1 km/h (2 Bft) 98,16 %
16.03.2019 23:00 5,3 C 7,2 C 1,0 C 88 % 1009,2 hPa 0,0 l/m 3,1 km/h (1 Bft) S 0,00 h 0,000 mm 0,0 UV-I 0 W/m 3,5 C 5,3 C 5,1 km/h (1 Bft) 96,85 %
17.03.2019 00:00 4,6 C 7,2 C 0,2 C 89 % 1008,9 hPa 0,0 l/m 3,8 km/h (1 Bft) S-SW 0,00 h 0,000 mm 0,0 UV-I 0 W/m 2,8 C 4,5 C 5,8 km/h (2 Bft) 96,25 %
17.03.2019 01:00 3,9 C 7,2 C -0,1 C 89 % 1008,5 hPa 0,0 l/m 4,3 km/h (1 Bft) S-SW 0,00 h 0,000 mm 0,0 UV-I 0 W/m 2,1 C 3,8 C 6,7 km/h (2 Bft) 98,07 %
17.03.2019 02:00 2,5 C 7,2 C -2,2 C 92 % 1008,3 hPa 0,0 l/m 2,5 km/h (1 Bft) SO 0,00 h 0,000 mm 0,0 UV-I 0 W/m 1,3 C 2,5 C 3,7 km/h (1 Bft) 97,78 %
17.03.2019 03:00 1,9 C 7,2 C -2,3 C 93 % 1008,1 hPa 0,0 l/m 3,5 km/h (1 Bft) S 0,00 h 0,000 mm 0,0 UV-I 0 W/m 0,8 C 1,9 C 4,9 km/h (1 Bft) 95,17 %
17.03.2019 04:00 1,6 C 7,2 C -1,9 C 91 % 1007,8 hPa 0,0 l/m 5,1 km/h (1 Bft) S 0,00 h 0,000 mm 0,0 UV-I 0 W/m 0,3 C 1,3 C 7,6 km/h (2 Bft) 98,04 %
17.03.2019 05:00 1,0 C 7,2 C -2,1 C 89 % 1007,7 hPa 0,0 l/m 4,0 km/h (1 Bft) SO 0,00 h 0,000 mm 0,0 UV-I 4 W/m -0,5 C 0,7 C 6,4 km/h (2 Bft) 97,30 %
17.03.2019 06:00 0,4 C 7,2 C -3,0 C 91 % 1007,8 hPa 0,0 l/m 2,9 km/h (1 Bft) O 0,17 h 0,000 mm 0,0 UV-I 24 W/m -1,0 C 0,3 C 5,1 km/h (1 Bft) 97,85 %
17.03.2019 07:00 2,0 C 7,2 C 0,3 C 89 % 1007,9 hPa 0,0 l/m 2,8 km/h (1 Bft) S 1,00 h 0,000 mm 0,0 UV-I 171 W/m 0,4 C 2,0 C 4,7 km/h (1 Bft) 95,84 %
17.03.2019 08:00 5,6 C 7,2 C 6,3 C 84 % 1007,7 hPa 0,0 l/m 6,3 km/h (2 Bft) O-NO 1,00 h 0,076 mm 0,6 UV-I 303 W/m 3,1 C 4,6 C 9,3 km/h (2 Bft) 96,93 %
17.03.2019 09:00 8,0 C 7,2 C 15,5 C 75 % 1007,2 hPa 0,0 l/m 6,5 km/h (2 Bft) O 0,95 h 0,127 mm 1,1 UV-I 408 W/m 3,9 C 7,3 C 10,3 km/h (2 Bft) 98,00 %
17.03.2019 10:00 10,7 C 7,2 C 23,5 C 68 % 1007,0 hPa 0,0 l/m 6,2 km/h (2 Bft) O 1,00 h 0,203 mm 1,6 UV-I 566 W/m 5,0 C 10,4 C 10,2 km/h (2 Bft) 93,89 %
17.03.2019 11:00 13,9 C 7,2 C 27,8 C 60 % 1006,6 hPa 0,0 l/m 3,3 km/h (1 Bft) N-NO 1,00 h 0,305 mm 2,3 UV-I 642 W/m 6,4 C 13,9 C 6,8 km/h (2 Bft) 79,90 %
17.03.2019 12:00 15,8 C 7,2 C 28,2 C 61 % 1005,8 hPa 0,0 l/m 6,4 km/h (2 Bft) N-NO 1,00 h 0,356 mm 2,4 UV-I 663 W/m 8,3 C 15,5 C 10,7 km/h (2 Bft) 75,88 %
17.03.2019 13:00 17,3 C 7,2 C 28,4 C 53 % 1004,6 hPa 0,0 l/m 4,4 km/h (1 Bft) O-NO 1,00 h 0,381 mm 2,1 UV-I 591 W/m 7,7 C 17,3 C 8,7 km/h (2 Bft) 95,32 %
17.03.2019 14:00 18,8 C 7,2 C 25,7 C 43 % 1003,6 hPa 0,0 l/m 8,7 km/h (2 Bft) N-NO 1,00 h 0,356 mm 1,6 UV-I 529 W/m 5,8 C 17,8 C 14,0 km/h (3 Bft) 97,81 %
17.03.2019 15:00 18,8 C 7,2 C 18,8 C 33 % 1002,9 hPa 0,0 l/m 6,8 km/h (2 Bft) N 1,00 h 0,356 mm 0,9 UV-I 378 W/m 2,3 C 18,4 C 12,9 km/h (3 Bft) 96,27 %
17.03.2019 16:00 18,1 C 7,2 C 15,1 C 38 % 1002,7 hPa 0,0 l/m 6,0 km/h (2 Bft) NW 1,00 h 0,279 mm 0,5 UV-I 220 W/m 3,3 C 17,9 C 13,4 km/h (3 Bft) 98,17 %
17.03.2019 17:00 16,6 C 7,2 C 11,2 C 42 % 1002,9 hPa 0,0 l/m 3,4 km/h (1 Bft) W-NW 1,02 h 0,177 mm 0,0 UV-I 83 W/m 3,5 C 16,6 C 5,5 km/h (1 Bft) 96,90 %
17.03.2019 18:00 14,2 C 7,2 C 9,4 C 50 % 1003,5 hPa 0,0 l/m 9,3 km/h (2 Bft) W 0,03 h 0,076 mm 0,0 UV-I 10 W/m 3,7 C 12,3 C 14,9 km/h (3 Bft) 97,51 %
17.03.2019 19:00 15,0 C 7,2 C 13,0 C 42 % 1004,2 hPa 0,0 l/m 16,7 km/h (3 Bft) W 0,00 h 0,077 mm 0,0 UV-I 0 W/m 2,3 C 10,6 C 25,7 km/h (4 Bft) 98,58 %
17.03.2019 20:00 12,4 C 7,2 C 10,7 C 55 % 1005,9 hPa 0,0 l/m 17,9 km/h (3 Bft) W 0,00 h 0,127 mm 0,0 UV-I 0 W/m 3,4 C 7,4 C 31,6 km/h (5 Bft) 97,73 %
17.03.2019 21:00 7,5 C 7,2 C 6,8 C 74 % 1009,5 hPa 0,2 l/m 25,5 km/h (4 Bft) W 0,00 h 0,101 mm 0,0 UV-I 0 W/m 3,2 C -1,5 C 42,2 km/h (6 Bft) 95,62 %
17.03.2019 22:00 5,7 C 7,2 C 4,6 C 84 % 1012,0 hPa 0,2 l/m 22,0 km/h (4 Bft) W 0,00 h 0,076 mm 0,0 UV-I 0 W/m 3,2 C -2,8 C 35,9 km/h (5 Bft) 98,12 %
17.03.2019 23:00 4,8 C 7,2 C 4,0 C 88 % 1013,2 hPa 0,4 l/m 17,9 km/h (3 Bft) W 0,00 h 0,026 mm 0,0 UV-I 0 W/m 3,0 C -2,5 C 26,5 km/h (4 Bft) 97,92 %
Min-Datum _ 13.03.19 11.03.19 17.03.19 17.03.19 17.03.19 - 13.03.19 - - - - - 12.03.19 11.03.19 13.03.19 17.03.19
_ Min-Zeit 01:46 00:00 03:06 15:55 15:55 - 02:36 - - - - - 17:06 11:40 02:36 12:40
Minimum _ -0,3 C 7,2 C -3,9 C 30 % 1002,7 hPa - 0,0 km/h (0 Bft) - - - - - -3,7 C -11,5 C 0,0 km/h (0 Bft) 0,00 %
Max-Datum _ 17.03.19 11.03.19 17.03.19 11.03.19 12.03.19 15.03.19 16.03.19 - 17.03.19 17.03.19 17.03.19 14.03.19 17.03.19 17.03.19 16.03.19 11.03.19
_ Max-Zeit 14:30 00:00 11:55 20:44 09:22 16:02 01:52 - 10:00 13:00 11:55 11:50 12:15 15:00 00:56 00:14
Maximum _ 19,1 C 7,2 C 29,4 C 94 % 1026,3 hPa 2,2 l/m 45,9 km/h
W (6 Bft)
- 0,08 h 0,381 mm 2,5 UV-I 806 W/m 9,5 C 19,1 C 80,5 km/h
W-SW (9 Bft)
100,00 %
Durchschnitt _ 6,4 C 7,2 C 6,3 C 75 % 1011,8 hPa #24,8 l/m 17,1 km/h (3 Bft) W #25:25 h #14,173 mm 0,8 UV-I 177 W/m 2,1 C 0,5 C 26,5 km/h (4 Bft) 97,03 %